sensor_id;sensor_type;location;lat;lon;timestamp;temperature;humidity
45207;DHT22;30950;53.086;21.576;2023-03-31T00:00:27;9.30;99.90
45207;DHT22;30950;53.086;21.576;2023-03-31T00:03:11;9.20;99.90
45207;DHT22;30950;53.086;21.576;2023-03-31T00:05:39;9.50;99.90
45207;DHT22;30950;53.086;21.576;2023-03-31T00:08:06;9.30;99.90
45207;DHT22;30950;53.086;21.576;2023-03-31T00:10:35;9.90;99.90
45207;DHT22;30950;53.086;21.576;2023-03-31T00:13:02;9.30;99.90
45207;DHT22;30950;53.086;21.576;2023-03-31T00:15:30;9.40;99.90
45207;DHT22;30950;53.086;21.576;2023-03-31T00:17:57;9.40;99.90
45207;DHT22;30950;53.086;21.576;2023-03-31T00:20:27;9.40;99.90
45207;DHT22;30950;53.086;21.576;2023-03-31T00:22:54;9.50;99.90
45207;DHT22;30950;53.086;21.576;2023-03-31T00:25:23;9.60;99.90
45207;DHT22;30950;53.086;21.576;2023-03-31T00:27:51;9.50;99.90
45207;DHT22;30950;53.086;21.576;2023-03-31T00:30:18;9.60;99.90
45207;DHT22;30950;53.086;21.576;2023-03-31T00:32:46;9.60;99.90
45207;DHT22;30950;53.086;21.576;2023-03-31T00:35:14;9.90;99.90
45207;DHT22;30950;53.086;21.576;2023-03-31T00:37:41;9.60;99.90
45207;DHT22;30950;53.086;21.576;2023-03-31T00:40:10;9.70;99.90
45207;DHT22;30950;53.086;21.576;2023-03-31T00:42:42;9.70;99.90
45207;DHT22;30950;53.086;21.576;2023-03-31T00:47:44;9.70;99.90
45207;DHT22;30950;53.086;21.576;2023-03-31T00:50:21;10.40;99.90
45207;DHT22;30950;53.086;21.576;2023-03-31T00:52:54;9.70;99.90
45207;DHT22;30950;53.086;21.576;2023-03-31T00:55:32;9.80;99.90
45207;DHT22;30950;53.086;21.576;2023-03-31T00:58:02;9.80;99.90
45207;DHT22;30950;53.086;21.576;2023-03-31T01:00:30;9.70;99.90
45207;DHT22;30950;53.086;21.576;2023-03-31T01:03:01;9.80;99.90
45207;DHT22;30950;53.086;21.576;2023-03-31T01:05:37;9.90;99.90
45207;DHT22;30950;53.086;21.576;2023-03-31T01:08:07;9.90;99.90
45207;DHT22;30950;53.086;21.576;2023-03-31T01:10:39;9.90;99.90
45207;DHT22;30950;53.086;21.576;2023-03-31T01:13:09;10.10;99.90
45207;DHT22;30950;53.086;21.576;2023-03-31T01:15:38;9.90;99.90
45207;DHT22;30950;53.086;21.576;2023-03-31T01:18:05;10.00;99.90
45207;DHT22;30950;53.086;21.576;2023-03-31T01:21:54;10.00;99.90
45207;DHT22;30950;53.086;21.576;2023-03-31T01:27:03;10.00;99.90
45207;DHT22;30950;53.086;21.576;2023-03-31T01:38:38;10.00;99.90
45207;DHT22;30950;53.086;21.576;2023-03-31T01:44:11;10.00;99.90
45207;DHT22;30950;53.086;21.576;2023-03-31T01:46:50;10.00;99.90
45207;DHT22;30950;53.086;21.576;2023-03-31T01:54:49;10.00;99.90
45207;DHT22;30950;53.086;21.576;2023-03-31T01:57:27;10.00;99.90
45207;DHT22;30950;53.086;21.576;2023-03-31T02:00:03;10.00;99.90
45207;DHT22;30950;53.086;21.576;2023-03-31T02:03:03;9.90;99.90
45207;DHT22;30950;53.086;21.576;2023-03-31T02:05:37;9.90;99.90
45207;DHT22;30950;53.086;21.576;2023-03-31T02:08:08;10.00;99.90
45207;DHT22;30950;53.086;21.576;2023-03-31T02:10:38;9.90;99.90
45207;DHT22;30950;53.086;21.576;2023-03-31T02:13:08;10.00;99.90
45207;DHT22;30950;53.086;21.576;2023-03-31T02:15:43;10.00;99.90
45207;DHT22;30950;53.086;21.576;2023-03-31T02:18:15;10.20;99.90
45207;DHT22;30950;53.086;21.576;2023-03-31T02:20:48;9.90;99.90
45207;DHT22;30950;53.086;21.576;2023-03-31T02:23:20;9.90;99.90
45207;DHT22;30950;53.086;21.576;2023-03-31T02:25:52;9.90;99.90
45207;DHT22;30950;53.086;21.576;2023-03-31T02:28:25;9.90;99.90
45207;DHT22;30950;53.086;21.576;2023-03-31T02:33:20;9.90;99.90
45207;DHT22;30950;53.086;21.576;2023-03-31T02:35:48;9.90;99.90
45207;DHT22;30950;53.086;21.576;2023-03-31T02:38:15;9.90;99.90
45207;DHT22;30950;53.086;21.576;2023-03-31T02:40:42;10.10;99.90
45207;DHT22;30950;53.086;21.576;2023-03-31T02:43:09;9.80;99.90
45207;DHT22;30950;53.086;21.576;2023-03-31T02:45:49;9.80;99.90
45207;DHT22;30950;53.086;21.576;2023-03-31T02:48:24;9.80;99.90
45207;DHT22;30950;53.086;21.576;2023-03-31T02:56:56;9.80;99.90
45207;DHT22;30950;53.086;21.576;2023-03-31T03:02:07;9.80;99.90
45207;DHT22;30950;53.086;21.576;2023-03-31T03:07:46;9.70;99.90
45207;DHT22;30950;53.086;21.576;2023-03-31T03:13:15;9.80;99.90
45207;DHT22;30950;53.086;21.576;2023-03-31T03:15:54;9.80;99.90
45207;DHT22;30950;53.086;21.576;2023-03-31T03:18:22;9.80;99.90
45207;DHT22;30950;53.086;21.576;2023-03-31T03:20:49;9.80;99.90
45207;DHT22;30950;53.086;21.576;2023-03-31T03:23:17;9.80;99.90
45207;DHT22;30950;53.086;21.576;2023-03-31T03:25:44;9.80;99.90
45207;DHT22;30950;53.086;21.576;2023-03-31T03:28:13;9.80;99.90
45207;DHT22;30950;53.086;21.576;2023-03-31T03:30:40;9.80;99.90
45207;DHT22;30950;53.086;21.576;2023-03-31T03:33:07;9.80;99.90
45207;DHT22;30950;53.086;21.576;2023-03-31T03:35:35;9.90;99.90
45207;DHT22;30950;53.086;21.576;2023-03-31T03:38:03;9.80;99.90
45207;DHT22;30950;53.086;21.576;2023-03-31T03:40:30;9.90;99.90
45207;DHT22;30950;53.086;21.576;2023-03-31T03:42:57;9.80;99.90
45207;DHT22;30950;53.086;21.576;2023-03-31T03:45:24;10.20;99.90
45207;DHT22;30950;53.086;21.576;2023-03-31T03:47:52;9.90;99.90
45207;DHT22;30950;53.086;21.576;2023-03-31T03:50:19;9.90;99.90
45207;DHT22;30950;53.086;21.576;2023-03-31T03:52:46;9.90;99.90
45207;DHT22;30950;53.086;21.576;2023-03-31T03:55:13;9.90;99.90
45207;DHT22;30950;53.086;21.576;2023-03-31T03:57:41;9.80;99.90
45207;DHT22;30950;53.086;21.576;2023-03-31T04:00:08;9.90;99.90
45207;DHT22;30950;53.086;21.576;2023-03-31T04:02:39;9.90;99.90
45207;DHT22;30950;53.086;21.576;2023-03-31T04:05:07;9.90;99.90
45207;DHT22;30950;53.086;21.576;2023-03-31T04:07:34;9.80;99.90
45207;DHT22;30950;53.086;21.576;2023-03-31T04:10:01;10.70;99.90
45207;DHT22;30950;53.086;21.576;2023-03-31T04:12:29;9.80;99.90
45207;DHT22;30950;53.086;21.576;2023-03-31T04:14:56;9.80;99.90
45207;DHT22;30950;53.086;21.576;2023-03-31T04:17:23;9.80;99.90
45207;DHT22;30950;53.086;21.576;2023-03-31T04:20:08;9.80;99.90
45207;DHT22;30950;53.086;21.576;2023-03-31T04:22:37;9.80;99.90
45207;DHT22;30950;53.086;21.576;2023-03-31T04:25:09;9.80;99.90
45207;DHT22;30950;53.086;21.576;2023-03-31T04:27:51;9.80;99.90
45207;DHT22;30950;53.086;21.576;2023-03-31T04:30:22;9.80;99.90
45207;DHT22;30950;53.086;21.576;2023-03-31T04:32:51;9.80;99.90
45207;DHT22;30950;53.086;21.576;2023-03-31T04:35:21;9.80;99.90
45207;DHT22;30950;53.086;21.576;2023-03-31T04:37:51;9.80;99.90
45207;DHT22;30950;53.086;21.576;2023-03-31T04:40:24;9.70;99.90
45207;DHT22;30950;53.086;21.576;2023-03-31T04:42:52;9.80;99.90
45207;DHT22;30950;53.086;21.576;2023-03-31T04:45:19;9.80;99.90
45207;DHT22;30950;53.086;21.576;2023-03-31T04:47:46;9.70;99.90
45207;DHT22;30950;53.086;21.576;2023-03-31T04:50:13;9.80;99.90
45207;DHT22;30950;53.086;21.576;2023-03-31T04:52:43;9.80;99.90
45207;DHT22;30950;53.086;21.576;2023-03-31T04:55:10;9.90;99.90
45207;DHT22;30950;53.086;21.576;2023-03-31T04:57:38;9.80;99.90
45207;DHT22;30950;53.086;21.576;2023-03-31T05:00:05;9.70;99.90
45207;DHT22;30950;53.086;21.576;2023-03-31T05:02:34;9.80;99.90
45207;DHT22;30950;53.086;21.576;2023-03-31T05:05:01;9.90;99.90
45207;DHT22;30950;53.086;21.576;2023-03-31T05:07:28;9.80;99.90
45207;DHT22;30950;53.086;21.576;2023-03-31T05:09:55;10.00;99.90
45207;DHT22;30950;53.086;21.576;2023-03-31T05:12:23;9.80;99.90
45207;DHT22;30950;53.086;21.576;2023-03-31T05:14:51;9.80;99.90
45207;DHT22;30950;53.086;21.576;2023-03-31T05:17:18;9.90;99.90
45207;DHT22;30950;53.086;21.576;2023-03-31T05:19:46;10.00;99.90
45207;DHT22;30950;53.086;21.576;2023-03-31T05:22:13;9.90;99.90
45207;DHT22;30950;53.086;21.576;2023-03-31T05:24:46;10.00;99.90
45207;DHT22;30950;53.086;21.576;2023-03-31T05:27:15;10.00;99.90
45207;DHT22;30950;53.086;21.576;2023-03-31T05:29:42;10.00;99.90
45207;DHT22;30950;53.086;21.576;2023-03-31T05:32:10;10.00;99.90
45207;DHT22;30950;53.086;21.576;2023-03-31T05:34:37;10.90;99.90
45207;DHT22;30950;53.086;21.576;2023-03-31T05:37:04;10.00;99.90
45207;DHT22;30950;53.086;21.576;2023-03-31T05:39:31;10.00;99.90
45207;DHT22;30950;53.086;21.576;2023-03-31T05:41:59;10.00;99.90
45207;DHT22;30950;53.086;21.576;2023-03-31T05:44:26;10.00;99.90
45207;DHT22;30950;53.086;21.576;2023-03-31T05:46:54;10.00;99.90
45207;DHT22;30950;53.086;21.576;2023-03-31T05:49:21;10.00;99.90
45207;DHT22;30950;53.086;21.576;2023-03-31T05:51:48;10.00;99.90
45207;DHT22;30950;53.086;21.576;2023-03-31T05:54:16;9.90;99.90
45207;DHT22;30950;53.086;21.576;2023-03-31T05:56:44;9.80;99.90
45207;DHT22;30950;53.086;21.576;2023-03-31T05:59:11;10.40;99.90
45207;DHT22;30950;53.086;21.576;2023-03-31T06:01:41;10.30;99.90
45207;DHT22;30950;53.086;21.576;2023-03-31T06:04:08;9.50;99.90
45207;DHT22;30950;53.086;21.576;2023-03-31T06:06:36;9.50;99.90
45207;DHT22;30950;53.086;21.576;2023-03-31T06:09:05;9.40;99.90
45207;DHT22;30950;53.086;21.576;2023-03-31T06:11:32;9.70;99.90
45207;DHT22;30950;53.086;21.576;2023-03-31T06:13:59;9.40;99.90
45207;DHT22;30950;53.086;21.576;2023-03-31T06:16:27;9.40;99.90
45207;DHT22;30950;53.086;21.576;2023-03-31T06:18:55;9.40;99.90
45207;DHT22;30950;53.086;21.576;2023-03-31T06:21:22;9.40;99.90
45207;DHT22;30950;53.086;21.576;2023-03-31T06:23:49;9.40;99.90
45207;DHT22;30950;53.086;21.576;2023-03-31T06:26:21;9.50;99.90
45207;DHT22;30950;53.086;21.576;2023-03-31T06:28:49;9.50;99.90
45207;DHT22;30950;53.086;21.576;2023-03-31T06:31:22;9.60;99.90
45207;DHT22;30950;53.086;21.576;2023-03-31T06:33:50;9.60;99.90
45207;DHT22;30950;53.086;21.576;2023-03-31T06:36:19;9.90;99.90
45207;DHT22;30950;53.086;21.576;2023-03-31T06:38:48;9.70;99.90
45207;DHT22;30950;53.086;21.576;2023-03-31T06:41:17;9.70;99.90
45207;DHT22;30950;53.086;21.576;2023-03-31T06:43:44;9.80;99.90
45207;DHT22;30950;53.086;21.576;2023-03-31T06:46:12;9.90;99.90
45207;DHT22;30950;53.086;21.576;2023-03-31T06:48:40;10.00;99.90
45207;DHT22;30950;53.086;21.576;2023-03-31T06:51:09;9.80;99.90
45207;DHT22;30950;53.086;21.576;2023-03-31T06:53:36;10.00;99.90
45207;DHT22;30950;53.086;21.576;2023-03-31T06:56:04;9.90;99.90
45207;DHT22;30950;53.086;21.576;2023-03-31T06:58:33;9.90;99.90
45207;DHT22;30950;53.086;21.576;2023-03-31T07:01:02;10.00;99.90
45207;DHT22;30950;53.086;21.576;2023-03-31T07:03:31;10.10;99.90
45207;DHT22;30950;53.086;21.576;2023-03-31T07:05:58;11.30;99.90
45207;DHT22;30950;53.086;21.576;2023-03-31T07:08:26;10.20;99.90
45207;DHT22;30950;53.086;21.576;2023-03-31T07:10:58;10.20;99.90
45207;DHT22;30950;53.086;21.576;2023-03-31T07:13:26;10.30;99.90
45207;DHT22;30950;53.086;21.576;2023-03-31T07:15:54;10.40;99.90
45207;DHT22;30950;53.086;21.576;2023-03-31T07:18:22;10.20;99.90
45207;DHT22;30950;53.086;21.576;2023-03-31T07:20:52;10.30;99.90
45207;DHT22;30950;53.086;21.576;2023-03-31T07:23:19;10.30;99.90
45207;DHT22;30950;53.086;21.576;2023-03-31T07:25:47;10.40;99.90
45207;DHT22;30950;53.086;21.576;2023-03-31T07:28:15;10.40;99.90
45207;DHT22;30950;53.086;21.576;2023-03-31T07:30:42;10.50;99.90
45207;DHT22;30950;53.086;21.576;2023-03-31T07:33:09;10.60;99.90
45207;DHT22;30950;53.086;21.576;2023-03-31T07:35:38;10.60;99.90
45207;DHT22;30950;53.086;21.576;2023-03-31T07:38:07;10.70;99.90
45207;DHT22;30950;53.086;21.576;2023-03-31T07:40:35;10.80;99.90
45207;DHT22;30950;53.086;21.576;2023-03-31T07:43:02;10.80;99.90
45207;DHT22;30950;53.086;21.576;2023-03-31T07:45:30;10.90;99.90
45207;DHT22;30950;53.086;21.576;2023-03-31T07:47:58;10.90;99.90
45207;DHT22;30950;53.086;21.576;2023-03-31T07:50:25;11.00;99.90
45207;DHT22;30950;53.086;21.576;2023-03-31T07:52:55;11.00;99.90
45207;DHT22;30950;53.086;21.576;2023-03-31T07:55:22;11.00;99.90
45207;DHT22;30950;53.086;21.576;2023-03-31T07:57:50;11.20;99.90
45207;DHT22;30950;53.086;21.576;2023-03-31T08:00:18;11.10;99.90
45207;DHT22;30950;53.086;21.576;2023-03-31T08:02:45;11.10;99.90
45207;DHT22;30950;53.086;21.576;2023-03-31T08:05:16;11.20;99.90
45207;DHT22;30950;53.086;21.576;2023-03-31T08:07:45;11.30;99.90
45207;DHT22;30950;53.086;21.576;2023-03-31T08:10:17;11.50;99.90
45207;DHT22;30950;53.086;21.576;2023-03-31T08:12:45;11.40;99.90
45207;DHT22;30950;53.086;21.576;2023-03-31T08:15:12;11.50;99.90
45207;DHT22;30950;53.086;21.576;2023-03-31T08:17:40;11.50;99.90
45207;DHT22;30950;53.086;21.576;2023-03-31T08:20:07;11.60;99.90
45207;DHT22;30950;53.086;21.576;2023-03-31T08:22:37;11.60;99.90
45207;DHT22;30950;53.086;21.576;2023-03-31T08:25:05;11.80;99.90
45207;DHT22;30950;53.086;21.576;2023-03-31T08:27:36;11.80;99.90
45207;DHT22;30950;53.086;21.576;2023-03-31T08:30:06;11.90;99.90
45207;DHT22;30950;53.086;21.576;2023-03-31T08:32:34;11.90;99.90
45207;DHT22;30950;53.086;21.576;2023-03-31T08:35:01;11.90;99.90
45207;DHT22;30950;53.086;21.576;2023-03-31T08:37:29;11.90;99.90
45207;DHT22;30950;53.086;21.576;2023-03-31T08:39:57;11.90;99.90
45207;DHT22;30950;53.086;21.576;2023-03-31T08:47:29;11.90;99.90
45207;DHT22;30950;53.086;21.576;2023-03-31T08:50:02;12.00;99.90
45207;DHT22;30950;53.086;21.576;2023-03-31T08:52:35;12.10;99.90
45207;DHT22;30950;53.086;21.576;2023-03-31T08:55:12;12.10;99.90
45207;DHT22;30950;53.086;21.576;2023-03-31T08:57:54;12.20;99.90
45207;DHT22;30950;53.086;21.576;2023-03-31T09:00:23;12.30;99.90
45207;DHT22;30950;53.086;21.576;2023-03-31T09:02:59;12.40;99.90
45207;DHT22;30950;53.086;21.576;2023-03-31T09:05:36;12.50;99.90
45207;DHT22;30950;53.086;21.576;2023-03-31T09:08:36;12.60;99.90
45207;DHT22;30950;53.086;21.576;2023-03-31T09:14:03;12.80;99.90
45207;DHT22;30950;53.086;21.576;2023-03-31T09:16:43;12.80;99.90
45207;DHT22;30950;53.086;21.576;2023-03-31T09:19:26;12.80;99.90
45207;DHT22;30950;53.086;21.576;2023-03-31T09:21:57;12.80;99.90
45207;DHT22;30950;53.086;21.576;2023-03-31T09:24:30;12.80;99.90
45207;DHT22;30950;53.086;21.576;2023-03-31T09:27:09;12.80;99.90
45207;DHT22;30950;53.086;21.576;2023-03-31T09:29:57;12.70;99.90
45207;DHT22;30950;53.086;21.576;2023-03-31T09:32:30;12.70;99.90
45207;DHT22;30950;53.086;21.576;2023-03-31T09:35:22;12.80;99.90
45207;DHT22;30950;53.086;21.576;2023-03-31T09:37:52;12.80;99.90
45207;DHT22;30950;53.086;21.576;2023-03-31T09:40:22;12.80;99.90
45207;DHT22;30950;53.086;21.576;2023-03-31T09:43:03;12.80;99.90
45207;DHT22;30950;53.086;21.576;2023-03-31T09:45:32;12.70;99.90
45207;DHT22;30950;53.086;21.576;2023-03-31T09:48:13;12.60;99.90
45207;DHT22;30950;53.086;21.576;2023-03-31T09:50:48;12.60;99.90
45207;DHT22;30950;53.086;21.576;2023-03-31T09:55:55;12.50;99.90
45207;DHT22;30950;53.086;21.576;2023-03-31T09:58:26;12.50;99.90
45207;DHT22;30950;53.086;21.576;2023-03-31T10:01:03;12.50;99.90
45207;DHT22;30950;53.086;21.576;2023-03-31T10:03:32;12.70;99.90
45207;DHT22;30950;53.086;21.576;2023-03-31T10:06:14;12.70;99.90
45207;DHT22;30950;53.086;21.576;2023-03-31T10:11:24;12.80;99.90
45207;DHT22;30950;53.086;21.576;2023-03-31T10:14:02;12.80;99.90
45207;DHT22;30950;53.086;21.576;2023-03-31T10:16:32;12.80;99.90
45207;DHT22;30950;53.086;21.576;2023-03-31T10:21:46;12.70;99.90
45207;DHT22;30950;53.086;21.576;2023-03-31T10:24:18;12.90;99.90
45207;DHT22;30950;53.086;21.576;2023-03-31T10:26:48;12.90;99.90
45207;DHT22;30950;53.086;21.576;2023-03-31T10:29:21;13.00;99.90
45207;DHT22;30950;53.086;21.576;2023-03-31T10:31:51;13.10;99.90
45207;DHT22;30950;53.086;21.576;2023-03-31T10:34:19;13.00;99.90
45207;DHT22;30950;53.086;21.576;2023-03-31T10:36:50;13.10;99.90
45207;DHT22;30950;53.086;21.576;2023-03-31T10:39:28;13.10;99.90
45207;DHT22;30950;53.086;21.576;2023-03-31T10:41:55;13.10;99.90
45207;DHT22;30950;53.086;21.576;2023-03-31T10:44:39;13.10;99.90
45207;DHT22;30950;53.086;21.576;2023-03-31T10:49:40;13.10;99.90
45207;DHT22;30950;53.086;21.576;2023-03-31T10:52:27;13.10;99.90
45207;DHT22;30950;53.086;21.576;2023-03-31T10:54:58;13.10;99.90
45207;DHT22;30950;53.086;21.576;2023-03-31T11:00:36;13.00;99.90
45207;DHT22;30950;53.086;21.576;2023-03-31T11:03:13;12.90;99.90
45207;DHT22;30950;53.086;21.576;2023-03-31T11:05:52;12.80;99.90
45207;DHT22;30950;53.086;21.576;2023-03-31T11:14:21;12.70;99.90
45207;DHT22;30950;53.086;21.576;2023-03-31T11:19:33;12.90;99.90
45207;DHT22;30950;53.086;21.576;2023-03-31T11:25:21;13.00;99.90
45207;DHT22;30950;53.086;21.576;2023-03-31T11:42:15;13.10;99.90
45207;DHT22;30950;53.086;21.576;2023-03-31T11:44:49;13.10;99.90
45207;DHT22;30950;53.086;21.576;2023-03-31T11:47:23;13.10;99.90
45207;DHT22;30950;53.086;21.576;2023-03-31T11:52:28;13.20;99.90
45207;DHT22;30950;53.086;21.576;2023-03-31T11:55:06;13.30;99.90
45207;DHT22;30950;53.086;21.576;2023-03-31T11:57:59;13.40;99.90
45207;DHT22;30950;53.086;21.576;2023-03-31T12:00:35;13.50;99.90
45207;DHT22;30950;53.086;21.576;2023-03-31T12:03:10;13.50;99.90
45207;DHT22;30950;53.086;21.576;2023-03-31T12:05:44;13.60;99.90
45207;DHT22;30950;53.086;21.576;2023-03-31T12:11:08;13.60;99.90
45207;DHT22;30950;53.086;21.576;2023-03-31T12:13:43;13.60;99.90
45207;DHT22;30950;53.086;21.576;2023-03-31T12:16:41;13.60;99.90
45207;DHT22;30950;53.086;21.576;2023-03-31T12:19:26;13.60;99.90
45207;DHT22;30950;53.086;21.576;2023-03-31T12:22:21;13.70;99.90
45207;DHT22;30950;53.086;21.576;2023-03-31T12:24:45;13.60;99.90
45207;DHT22;30950;53.086;21.576;2023-03-31T12:27:38;13.60;99.90
45207;DHT22;30950;53.086;21.576;2023-03-31T12:32:54;13.90;99.90
45207;DHT22;30950;53.086;21.576;2023-03-31T12:41:23;14.10;99.90
45207;DHT22;30950;53.086;21.576;2023-03-31T12:47:04;14.20;99.90
45207;DHT22;30950;53.086;21.576;2023-03-31T12:49:54;14.20;99.90
45207;DHT22;30950;53.086;21.576;2023-03-31T12:57:26;14.40;99.90
45207;DHT22;30950;53.086;21.576;2023-03-31T13:02:37;14.40;99.90
45207;DHT22;30950;53.086;21.576;2023-03-31T13:08:09;14.40;99.90
45207;DHT22;30950;53.086;21.576;2023-03-31T13:10:55;14.50;99.90
45207;DHT22;30950;53.086;21.576;2023-03-31T13:13:24;14.60;99.90
45207;DHT22;30950;53.086;21.576;2023-03-31T13:15:54;14.60;99.90
45207;DHT22;30950;53.086;21.576;2023-03-31T13:18:23;14.70;99.90
45207;DHT22;30950;53.086;21.576;2023-03-31T13:21:03;14.80;99.90
45207;DHT22;30950;53.086;21.576;2023-03-31T13:23:35;14.90;99.90
45207;DHT22;30950;53.086;21.576;2023-03-31T13:26:04;14.80;99.90
45207;DHT22;30950;53.086;21.576;2023-03-31T13:28:38;14.80;99.90
45207;DHT22;30950;53.086;21.576;2023-03-31T13:31:10;14.80;99.90
45207;DHT22;30950;53.086;21.576;2023-03-31T13:33:55;14.70;99.90
45207;DHT22;30950;53.086;21.576;2023-03-31T13:39:44;14.60;99.90
45207;DHT22;30950;53.086;21.576;2023-03-31T13:48:01;14.40;99.90
45207;DHT22;30950;53.086;21.576;2023-03-31T14:07:53;15.10;99.90
45207;DHT22;30950;53.086;21.576;2023-03-31T14:10:36;15.20;99.90
45207;DHT22;30950;53.086;21.576;2023-03-31T14:15:35;15.70;99.90
45207;DHT22;30950;53.086;21.576;2023-03-31T14:18:04;15.80;99.90
45207;DHT22;30950;53.086;21.576;2023-03-31T14:23:32;16.00;99.90
45207;DHT22;30950;53.086;21.576;2023-03-31T14:26:06;15.90;99.90
45207;DHT22;30950;53.086;21.576;2023-03-31T14:31:22;15.70;99.90
45207;DHT22;30950;53.086;21.576;2023-03-31T14:37:03;15.60;99.90
45207;DHT22;30950;53.086;21.576;2023-03-31T14:39:39;15.50;99.90
45207;DHT22;30950;53.086;21.576;2023-03-31T14:42:18;15.40;99.90
45207;DHT22;30950;53.086;21.576;2023-03-31T14:44:47;15.40;99.90
45207;DHT22;30950;53.086;21.576;2023-03-31T14:47:24;15.40;99.90
45207;DHT22;30950;53.086;21.576;2023-03-31T14:50:27;15.40;99.90
45207;DHT22;30950;53.086;21.576;2023-03-31T14:52:50;15.30;99.90
45207;DHT22;30950;53.086;21.576;2023-03-31T14:55:22;15.30;99.90
45207;DHT22;30950;53.086;21.576;2023-03-31T14:57:56;15.20;99.90
45207;DHT22;30950;53.086;21.576;2023-03-31T15:00:31;15.10;99.90
45207;DHT22;30950;53.086;21.576;2023-03-31T15:02:59;15.10;99.90
45207;DHT22;30950;53.086;21.576;2023-03-31T15:05:33;15.00;99.90
45207;DHT22;30950;53.086;21.576;2023-03-31T15:08:14;15.00;99.90
45207;DHT22;30950;53.086;21.576;2023-03-31T15:10:44;15.00;99.90
45207;DHT22;30950;53.086;21.576;2023-03-31T15:13:19;14.90;99.90
45207;DHT22;30950;53.086;21.576;2023-03-31T15:15:47;14.90;99.90
45207;DHT22;30950;53.086;21.576;2023-03-31T15:18:15;14.80;99.90
45207;DHT22;30950;53.086;21.576;2023-03-31T15:20:44;14.80;99.90
45207;DHT22;30950;53.086;21.576;2023-03-31T15:23:24;14.80;99.90
45207;DHT22;30950;53.086;21.576;2023-03-31T15:25:58;14.80;99.90
45207;DHT22;30950;53.086;21.576;2023-03-31T15:28:27;14.80;99.90
45207;DHT22;30950;53.086;21.576;2023-03-31T15:30:57;14.90;99.90
45207;DHT22;30950;53.086;21.576;2023-03-31T15:33:36;15.00;99.90
45207;DHT22;30950;53.086;21.576;2023-03-31T15:36:10;15.10;99.90
45207;DHT22;30950;53.086;21.576;2023-03-31T15:38:38;15.10;99.90
45207;DHT22;30950;53.086;21.576;2023-03-31T15:41:16;15.10;99.90
45207;DHT22;30950;53.086;21.576;2023-03-31T15:43:48;15.00;99.90
45207;DHT22;30950;53.086;21.576;2023-03-31T15:49:23;14.80;99.90
45207;DHT22;30950;53.086;21.576;2023-03-31T15:51:51;14.70;99.90
45207;DHT22;30950;53.086;21.576;2023-03-31T15:54:40;14.60;99.90
45207;DHT22;30950;53.086;21.576;2023-03-31T15:57:08;14.50;99.90
45207;DHT22;30950;53.086;21.576;2023-03-31T15:59:45;14.40;99.90
45207;DHT22;30950;53.086;21.576;2023-03-31T16:02:42;14.40;99.90
45207;DHT22;30950;53.086;21.576;2023-03-31T16:08:03;14.30;99.90
45207;DHT22;30950;53.086;21.576;2023-03-31T16:10:36;14.20;99.90
45207;DHT22;30950;53.086;21.576;2023-03-31T16:13:05;14.20;99.90
45207;DHT22;30950;53.086;21.576;2023-03-31T16:15:41;14.20;99.90
45207;DHT22;30950;53.086;21.576;2023-03-31T16:18:10;14.10;99.90
45207;DHT22;30950;53.086;21.576;2023-03-31T16:20:42;14.10;99.90
45207;DHT22;30950;53.086;21.576;2023-03-31T16:23:17;14.10;99.90
45207;DHT22;30950;53.086;21.576;2023-03-31T16:25:45;13.90;99.90
45207;DHT22;30950;53.086;21.576;2023-03-31T16:28:16;13.80;99.90
45207;DHT22;30950;53.086;21.576;2023-03-31T16:30:46;13.50;99.90
45207;DHT22;30950;53.086;21.576;2023-03-31T16:33:18;13.10;99.90
45207;DHT22;30950;53.086;21.576;2023-03-31T16:35:48;12.60;99.90
45207;DHT22;30950;53.086;21.576;2023-03-31T16:38:18;12.10;99.90
45207;DHT22;30950;53.086;21.576;2023-03-31T16:40:49;11.70;99.90
45207;DHT22;30950;53.086;21.576;2023-03-31T16:43:20;11.40;99.90
45207;DHT22;30950;53.086;21.576;2023-03-31T16:45:52;11.20;99.90
45207;DHT22;30950;53.086;21.576;2023-03-31T16:48:22;10.90;99.90
45207;DHT22;30950;53.086;21.576;2023-03-31T16:50:51;10.70;99.90
45207;DHT22;30950;53.086;21.576;2023-03-31T16:53:24;10.60;99.90
45207;DHT22;30950;53.086;21.576;2023-03-31T16:55:53;10.40;99.90
45207;DHT22;30950;53.086;21.576;2023-03-31T16:58:20;10.40;99.90
45207;DHT22;30950;53.086;21.576;2023-03-31T17:00:50;10.40;99.90
45207;DHT22;30950;53.086;21.576;2023-03-31T17:03:17;10.40;99.90
45207;DHT22;30950;53.086;21.576;2023-03-31T17:05:47;10.70;99.90
45207;DHT22;30950;53.086;21.576;2023-03-31T17:08:14;10.40;99.90
45207;DHT22;30950;53.086;21.576;2023-03-31T17:11:11;10.30;99.90
45207;DHT22;30950;53.086;21.576;2023-03-31T17:13:39;10.30;99.90
45207;DHT22;30950;53.086;21.576;2023-03-31T17:16:06;10.20;99.90
45207;DHT22;30950;53.086;21.576;2023-03-31T17:18:43;10.10;99.90
45207;DHT22;30950;53.086;21.576;2023-03-31T17:21:13;10.10;99.90
45207;DHT22;30950;53.086;21.576;2023-03-31T17:23:41;10.10;99.90
45207;DHT22;30950;53.086;21.576;2023-03-31T17:26:09;10.20;99.90
45207;DHT22;30950;53.086;21.576;2023-03-31T17:28:39;10.00;99.90
45207;DHT22;30950;53.086;21.576;2023-03-31T17:31:15;10.00;99.90
45207;DHT22;30950;53.086;21.576;2023-03-31T17:33:43;10.00;99.90
45207;DHT22;30950;53.086;21.576;2023-03-31T17:36:11;10.00;99.90
45207;DHT22;30950;53.086;21.576;2023-03-31T17:38:38;10.00;99.90
45207;DHT22;30950;53.086;21.576;2023-03-31T17:41:10;9.90;99.90
45207;DHT22;30950;53.086;21.576;2023-03-31T17:43:39;9.90;99.90
45207;DHT22;30950;53.086;21.576;2023-03-31T17:46:09;9.90;99.90
45207;DHT22;30950;53.086;21.576;2023-03-31T17:48:39;9.90;99.90
45207;DHT22;30950;53.086;21.576;2023-03-31T17:51:11;9.80;99.90
45207;DHT22;30950;53.086;21.576;2023-03-31T17:53:44;9.80;99.90
45207;DHT22;30950;53.086;21.576;2023-03-31T17:56:13;9.90;99.90
45207;DHT22;30950;53.086;21.576;2023-03-31T17:58:40;9.70;99.90
45207;DHT22;30950;53.086;21.576;2023-03-31T18:01:09;9.70;99.90
45207;DHT22;30950;53.086;21.576;2023-03-31T18:03:38;9.60;99.90
45207;DHT22;30950;53.086;21.576;2023-03-31T18:06:08;9.60;99.90
45207;DHT22;30950;53.086;21.576;2023-03-31T18:08:38;9.60;99.90
45207;DHT22;30950;53.086;21.576;2023-03-31T18:11:07;9.60;99.90
45207;DHT22;30950;53.086;21.576;2023-03-31T18:13:35;9.50;99.90
45207;DHT22;30950;53.086;21.576;2023-03-31T18:16:05;9.50;99.90
45207;DHT22;30950;53.086;21.576;2023-03-31T18:18:35;9.50;99.90
45207;DHT22;30950;53.086;21.576;2023-03-31T18:21:04;9.70;99.90
45207;DHT22;30950;53.086;21.576;2023-03-31T18:23:32;9.50;99.90
45207;DHT22;30950;53.086;21.576;2023-03-31T18:26:00;9.50;99.90
45207;DHT22;30950;53.086;21.576;2023-03-31T18:28:28;9.50;99.90